createdAt,value
2023-10-14T00:01:51.041Z,1.38
2023-10-14T00:04:18.777Z,2.17
2023-10-14T00:06:46.445Z,1.70
2023-10-14T00:09:14.032Z,1.23
2023-10-14T00:11:41.796Z,1.15
2023-10-14T00:14:10.480Z,1.35
2023-10-14T00:16:38.341Z,0.93
2023-10-14T00:19:10.852Z,1.23
2023-10-14T00:21:39.057Z,0.63
2023-10-14T00:24:07.231Z,1.40
2023-10-14T00:26:36.116Z,2.95
2023-10-14T00:29:04.508Z,2.58
2023-10-14T00:31:32.164Z,4.30
2023-10-14T00:34:00.115Z,2.92
2023-10-14T00:36:29.552Z,4.45
2023-10-14T00:38:57.641Z,5.35
2023-10-14T00:41:26.234Z,1.17
2023-10-14T00:43:54.814Z,0.50
2023-10-14T00:46:23.081Z,1.30
2023-10-14T00:48:52.066Z,3.88
2023-10-14T00:51:19.711Z,1.90
2023-10-14T00:53:51.611Z,2.60
2023-10-14T00:56:21.552Z,2.05
2023-10-14T00:58:49.114Z,2.88
2023-10-14T01:01:16.726Z,2.67
2023-10-14T01:03:45.396Z,0.47
2023-10-14T01:06:13.038Z,0.95
2023-10-14T01:08:40.659Z,3.25
2023-10-14T01:11:12.809Z,1.40
2023-10-14T01:13:40.300Z,6.13
2023-10-14T01:16:07.913Z,1.30
2023-10-14T01:18:36.421Z,0.22
2023-10-14T01:21:04.195Z,1.77
2023-10-14T01:23:33.277Z,2.45
2023-10-14T01:26:01.131Z,1.50
2023-10-14T01:28:28.727Z,0.20
2023-10-14T01:31:08.529Z,0.15
2023-10-14T01:33:36.378Z,0.30
2023-10-14T01:36:04.220Z,0.75
2023-10-14T01:38:33.573Z,0.75
2023-10-14T01:41:01.145Z,3.47
2023-10-14T01:43:29.023Z,0.38
2023-10-14T01:45:56.952Z,0.95
2023-10-14T01:48:24.851Z,1.27
2023-10-14T01:50:53.694Z,0.08
2023-10-14T01:53:21.711Z,3.17
2023-10-14T01:55:53.760Z,0.63
2023-10-14T01:58:22.747Z,1.35
2023-10-14T02:00:51.262Z,0.20
2023-10-14T02:03:21.502Z,0.43
2023-10-14T02:05:49.677Z,2.72
2023-10-14T02:08:17.254Z,0.57
2023-10-14T02:10:45.520Z,2.72
2023-10-14T02:13:15.448Z,2.72
2023-10-14T02:15:43.382Z,1.85
2023-10-14T02:18:10.943Z,0.70
2023-10-14T02:20:38.941Z,0.90
2023-10-14T02:23:07.050Z,0.57
2023-10-14T02:25:34.620Z,2.05
2023-10-14T02:28:02.231Z,1.98
2023-10-14T02:30:32.710Z,5.88
2023-10-14T02:33:00.276Z,1.83
2023-10-14T02:35:28.187Z,3.83
2023-10-14T02:37:55.887Z,1.00
2023-10-14T02:40:23.450Z,0.32
2023-10-14T02:42:51.368Z,5.28
2023-10-14T02:45:19.157Z,3.30
2023-10-14T02:47:48.201Z,3.15
2023-10-14T02:50:16.101Z,2.28
2023-10-14T02:52:43.707Z,1.15
2023-10-14T02:55:11.557Z,0.00
2023-10-14T02:57:39.416Z,0.00
2023-10-14T03:00:08.359Z,0.32
2023-10-14T03:02:36.024Z,2.45
2023-10-14T03:05:05.932Z,0.45
2023-10-14T03:07:33.605Z,1.88
2023-10-14T03:10:02.896Z,0.10
2023-10-14T03:12:30.854Z,0.90
2023-10-14T03:14:58.434Z,0.00
2023-10-14T03:17:26.055Z,1.75
2023-10-14T03:19:54.381Z,0.10
2023-10-14T03:22:24.319Z,4.28
2023-10-14T03:24:51.940Z,0.47
2023-10-14T03:27:20.482Z,3.50
2023-10-14T03:29:48.458Z,2.42
2023-10-14T03:32:16.135Z,0.65
2023-10-14T03:34:43.834Z,1.25
2023-10-14T03:37:11.402Z,0.10
2023-10-14T03:39:40.801Z,0.00
2023-10-14T03:42:08.967Z,0.63
2023-10-14T03:44:36.501Z,2.50
2023-10-14T03:47:05.133Z,0.20
2023-10-14T03:49:32.886Z,2.90
2023-10-14T03:52:00.477Z,0.15
2023-10-14T03:54:28.118Z,1.65
2023-10-14T03:56:57.487Z,0.88
2023-10-14T03:59:25.575Z,2.53
2023-10-14T04:01:54.604Z,2.38
2023-10-14T04:04:23.116Z,0.52
2023-10-14T04:06:52.156Z,3.72
2023-10-14T04:09:19.891Z,0.47
2023-10-14T04:11:47.565Z,0.82
2023-10-14T04:14:16.562Z,1.77
2023-10-14T04:16:44.140Z,1.55
2023-10-14T04:19:12.102Z,2.75
2023-10-14T04:21:39.658Z,0.28
2023-10-14T04:24:08.032Z,0.10
2023-10-14T04:26:35.909Z,0.65
2023-10-14T04:29:04.000Z,1.70
2023-10-14T04:31:33.679Z,6.53
2023-10-14T04:34:01.651Z,0.82
2023-10-14T04:36:29.606Z,0.25
2023-10-14T04:38:57.085Z,0.13
2023-10-14T04:41:24.944Z,1.30
2023-10-14T04:43:52.738Z,1.65
2023-10-14T04:46:20.401Z,2.00
2023-10-14T04:48:49.975Z,0.65
2023-10-14T04:51:18.187Z,3.40
2023-10-14T04:53:46.000Z,0.93
2023-10-14T04:56:14.082Z,3.75
2023-10-14T04:58:41.875Z,1.20
2023-10-14T05:01:10.838Z,4.25
2023-10-14T05:03:38.878Z,1.80
2023-10-14T05:06:17.874Z,1.02
2023-10-14T05:08:48.038Z,2.38
2023-10-14T05:11:16.843Z,1.38
2023-10-14T05:13:46.128Z,1.10
2023-10-14T05:16:15.160Z,0.35
2023-10-14T05:18:43.238Z,3.03
2023-10-14T05:21:15.588Z,1.95
2023-10-14T05:23:43.707Z,7.65
2023-10-14T05:26:13.536Z,3.80
2023-10-14T05:28:43.568Z,1.10
2023-10-14T05:31:11.686Z,3.10
2023-10-14T05:33:45.231Z,0.32
2023-10-14T05:36:16.426Z,6.18
2023-10-14T05:38:49.647Z,0.88
2023-10-14T05:46:24.250Z,3.33
2023-10-14T05:48:55.181Z,2.10
2023-10-14T05:51:37.397Z,1.15
2023-10-14T05:54:21.330Z,2.72
2023-10-14T05:56:58.849Z,0.65
2023-10-14T05:59:30.632Z,6.65
2023-10-14T06:02:11.283Z,6.32
2023-10-14T06:04:55.611Z,1.98
2023-10-14T06:07:37.875Z,2.28
2023-10-14T06:10:16.226Z,2.60
2023-10-14T06:12:55.213Z,3.28
2023-10-14T06:15:43.814Z,1.75
2023-10-14T06:18:20.541Z,1.48
2023-10-14T06:21:12.057Z,1.25
2023-10-14T06:23:44.870Z,1.75
2023-10-14T06:26:12.871Z,1.95
2023-10-14T06:28:43.207Z,2.72
2023-10-14T06:31:11.449Z,3.10
2023-10-14T06:33:39.396Z,3.40
2023-10-14T06:36:07.629Z,2.88
2023-10-14T06:38:56.316Z,2.45
2023-10-14T06:42:22.000Z,3.05
2023-10-14T06:44:54.104Z,2.55
2023-10-14T06:47:25.401Z,2.17
2023-10-14T06:50:01.317Z,1.70
2023-10-14T06:52:37.470Z,1.52
2023-10-14T06:55:18.592Z,2.67
2023-10-14T06:57:49.827Z,4.35
2023-10-14T07:00:20.614Z,4.93
2023-10-14T07:02:52.292Z,1.15
2023-10-14T07:05:26.862Z,2.95
2023-10-14T07:08:00.069Z,2.53
2023-10-14T07:10:33.694Z,2.92
2023-10-14T07:13:03.196Z,1.10
2023-10-14T07:15:53.797Z,1.90
2023-10-14T07:18:35.290Z,1.70
2023-10-14T07:21:17.343Z,4.00
2023-10-14T07:23:53.003Z,1.02
2023-10-14T07:26:30.731Z,2.70
2023-10-14T07:28:58.403Z,2.10
2023-10-14T07:31:26.257Z,2.38
2023-10-14T07:34:05.569Z,1.65
2023-10-14T07:36:33.479Z,3.65
2023-10-14T07:39:04.676Z,1.00
2023-10-14T07:41:37.336Z,6.28
2023-10-14T07:44:08.931Z,1.65
2023-10-14T07:49:11.247Z,1.58
2023-10-14T07:52:00.093Z,1.58
2023-10-14T07:54:34.137Z,3.95
2023-10-14T07:57:12.282Z,1.45
2023-10-14T07:59:44.924Z,1.17
2023-10-14T08:02:18.492Z,2.53
2023-10-14T08:04:53.849Z,1.65
2023-10-14T08:07:23.821Z,1.02
2023-10-14T08:09:55.425Z,2.05
2023-10-14T08:15:02.039Z,0.75
2023-10-14T08:17:41.496Z,1.13
2023-10-14T08:20:10.430Z,1.75
2023-10-14T08:22:48.479Z,2.22
2023-10-14T08:25:19.298Z,1.15
2023-10-14T08:27:55.661Z,0.85
2023-10-14T08:30:26.859Z,1.45
2023-10-14T08:33:00.249Z,1.75
2023-10-14T08:35:30.144Z,2.33
2023-10-14T08:38:21.440Z,2.28
2023-10-14T08:41:13.560Z,0.55
2023-10-14T08:44:01.143Z,2.28
2023-10-14T08:46:36.089Z,1.55
2023-10-14T08:49:18.328Z,1.17
2023-10-14T08:52:00.349Z,4.55
2023-10-14T08:54:41.658Z,1.67
2023-10-14T08:57:15.169Z,2.90
2023-10-14T09:00:11.664Z,1.73
2023-10-14T09:02:44.782Z,2.20
2023-10-14T09:07:49.007Z,1.98
2023-10-14T09:10:31.105Z,0.70
2023-10-14T09:13:10.919Z,1.25
2023-10-14T09:15:44.035Z,1.13
2023-10-14T09:18:23.621Z,1.83
2023-10-14T09:21:05.356Z,1.42
2023-10-14T09:23:33.910Z,0.68
2023-10-14T09:26:05.329Z,2.47
2023-10-14T09:28:34.732Z,0.57
2023-10-14T09:31:11.712Z,1.55
2023-10-14T09:33:44.168Z,1.13
2023-10-14T09:36:13.316Z,1.70
2023-10-14T09:38:46.167Z,0.88
2023-10-14T09:41:14.299Z,1.67
2023-10-14T09:43:46.142Z,1.08
2023-10-14T09:46:19.242Z,1.15
2023-10-14T09:48:49.150Z,1.17
2023-10-14T09:51:18.097Z,0.98
2023-10-14T09:53:48.319Z,1.73
2023-10-14T09:56:20.643Z,1.65
2023-10-14T09:58:55.439Z,0.95
2023-10-14T10:01:24.953Z,1.20
2023-10-14T10:03:56.974Z,1.48
2023-10-14T10:06:36.382Z,0.90
2023-10-14T10:09:31.143Z,0.70
2023-10-14T10:12:01.734Z,1.13
2023-10-14T10:14:38.495Z,0.57
2023-10-14T10:17:07.692Z,1.25
2023-10-14T10:20:07.870Z,1.73
2023-10-14T10:22:46.183Z,1.77
2023-10-14T10:25:20.041Z,1.13
2023-10-14T10:27:48.027Z,1.15
2023-10-14T10:30:21.316Z,0.35
2023-10-14T10:32:52.251Z,1.23
2023-10-14T10:35:21.096Z,0.93
2023-10-14T10:37:52.470Z,1.00
2023-10-14T10:42:52.376Z,1.38
2023-10-14T10:45:22.410Z,0.73
2023-10-14T10:48:07.938Z,1.00
2023-10-14T10:50:42.628Z,0.57
2023-10-14T10:53:20.982Z,1.15
2023-10-14T10:55:49.620Z,0.40
2023-10-14T10:58:20.450Z,2.42
2023-10-14T11:00:55.694Z,1.65
2023-10-14T11:03:28.171Z,1.10
2023-10-14T11:05:58.555Z,2.15
2023-10-14T11:08:28.683Z,0.40
2023-10-14T11:10:59.371Z,1.95
2023-10-14T11:13:27.406Z,0.85
2023-10-14T11:15:55.035Z,0.70
2023-10-14T11:18:37.689Z,1.02
2023-10-14T11:21:08.286Z,0.95
2023-10-14T11:23:36.130Z,3.38
2023-10-14T11:26:10.369Z,1.00
2023-10-14T11:28:44.649Z,0.88
2023-10-14T11:31:13.051Z,1.23
2023-10-14T11:33:45.480Z,1.15
2023-10-14T11:36:21.227Z,0.50
2023-10-14T11:38:49.467Z,1.95
2023-10-14T11:41:20.924Z,1.13
2023-10-14T11:43:51.605Z,0.63
2023-10-14T11:46:22.667Z,1.05
2023-10-14T11:49:10.233Z,1.27
2023-10-14T11:51:52.399Z,0.90
2023-10-14T11:54:26.406Z,1.30
2023-10-14T11:56:56.967Z,1.92
2023-10-14T11:59:30.116Z,1.50
2023-10-14T12:02:06.305Z,1.60
2023-10-14T12:04:38.078Z,1.33
2023-10-14T12:07:09.962Z,2.30
2023-10-14T12:09:40.923Z,1.10
2023-10-14T12:12:12.268Z,2.42
2023-10-14T12:14:40.108Z,1.48
2023-10-14T12:17:15.946Z,1.75
2023-10-14T12:19:43.793Z,3.20
2023-10-14T12:22:15.702Z,1.17
2023-10-14T12:24:43.716Z,0.73
2023-10-14T12:27:11.469Z,1.40
2023-10-14T12:29:41.477Z,1.23
2023-10-14T12:32:18.300Z,1.08
2023-10-14T12:34:53.556Z,0.55
2023-10-14T12:37:26.525Z,1.35
2023-10-14T12:39:56.260Z,1.00
2023-10-14T12:42:33.050Z,0.35
2023-10-14T12:45:02.199Z,1.20
2023-10-14T12:47:34.683Z,0.65
2023-10-14T12:50:02.668Z,0.60
2023-10-14T12:52:42.506Z,0.82
2023-10-14T12:55:10.245Z,1.90
2023-10-14T12:57:39.730Z,2.65
2023-10-14T13:00:14.166Z,1.85
2023-10-14T13:02:42.066Z,1.35
2023-10-14T13:05:12.760Z,0.77
2023-10-14T13:07:49.004Z,2.47
2023-10-14T13:10:17.381Z,1.58
2023-10-14T13:12:45.026Z,0.80
2023-10-14T13:15:14.340Z,0.60
2023-10-14T13:17:42.670Z,1.80
2023-10-14T13:20:11.170Z,1.05
2023-10-14T13:22:45.581Z,0.98
2023-10-14T13:25:21.347Z,0.57
2023-10-14T13:27:58.553Z,1.80
2023-10-14T13:30:30.465Z,1.08
2023-10-14T13:33:05.857Z,1.00
2023-10-14T13:35:34.077Z,0.95
2023-10-14T13:38:03.399Z,0.73
2023-10-14T13:40:40.154Z,2.17
2023-10-14T13:43:11.981Z,0.55
2023-10-14T13:45:39.610Z,0.95
2023-10-14T13:48:09.871Z,1.30
2023-10-14T13:50:40.345Z,1.77
2023-10-14T13:53:11.837Z,0.90
2023-10-14T13:55:43.068Z,0.85
2023-10-14T13:58:12.790Z,2.17
2023-10-14T14:00:44.065Z,0.70
2023-10-14T14:03:13.164Z,0.88
2023-10-14T14:05:47.579Z,0.55
2023-10-14T14:08:21.708Z,1.02
2023-10-14T14:10:51.837Z,0.90
2023-10-14T14:13:33.047Z,1.10
2023-10-14T14:16:06.884Z,1.98
2023-10-14T14:18:37.730Z,4.78
2023-10-14T14:21:07.433Z,1.55
2023-10-14T14:23:37.012Z,0.75
2023-10-14T14:26:10.813Z,1.30
2023-10-14T14:28:43.339Z,1.65
2023-10-14T14:31:11.117Z,1.10
2023-10-14T14:33:38.807Z,0.90
2023-10-14T14:36:15.432Z,1.23
2023-10-14T14:38:49.727Z,0.73
2023-10-14T14:41:20.004Z,1.80
2023-10-14T14:43:51.687Z,0.90
2023-10-14T14:46:22.872Z,0.57
2023-10-14T14:48:50.858Z,0.30
2023-10-14T14:51:18.580Z,1.52
2023-10-14T14:53:51.468Z,0.98
2023-10-14T14:56:19.261Z,2.20
2023-10-14T14:58:54.316Z,4.40
2023-10-14T15:01:23.743Z,7.28
2023-10-14T15:03:54.355Z,9.65
2023-10-14T15:06:22.609Z,15.02
2023-10-14T15:09:00.565Z,17.90
2023-10-14T15:11:32.958Z,11.00
2023-10-14T15:14:02.314Z,13.00
2023-10-14T15:16:42.145Z,8.13
2023-10-14T15:19:11.644Z,4.43
2023-10-14T15:21:39.519Z,10.23
2023-10-14T15:24:12.444Z,5.90
2023-10-14T15:26:50.509Z,6.43
2023-10-14T15:29:20.405Z,3.58
2023-10-14T15:31:50.137Z,25.48
2023-10-14T15:34:18.226Z,19.42
2023-10-14T15:36:49.287Z,8.30
2023-10-14T15:41:47.160Z,9.00
2023-10-14T15:44:14.933Z,2.33
2023-10-14T15:46:48.447Z,6.55
2023-10-14T15:49:20.838Z,7.20
2023-10-14T15:51:50.464Z,11.60
2023-10-14T15:54:26.360Z,10.45
2023-10-14T15:56:56.279Z,14.65
2023-10-14T15:59:25.365Z,11.70
2023-10-14T16:01:53.599Z,7.65
2023-10-14T16:04:21.626Z,3.80
2023-10-14T16:06:53.959Z,3.90
2023-10-14T16:09:28.517Z,2.55
2023-10-14T16:11:59.246Z,3.50
2023-10-14T16:14:28.690Z,7.20
2023-10-14T16:16:56.437Z,3.28
2023-10-14T16:19:26.940Z,2.47
2023-10-14T16:21:58.289Z,3.25
2023-10-14T16:24:27.704Z,0.65
2023-10-14T16:26:55.593Z,2.83
2023-10-14T16:29:25.709Z,3.03
2023-10-14T16:31:53.729Z,1.80
2023-10-14T16:34:21.544Z,1.30
2023-10-14T16:36:51.359Z,3.28
2023-10-14T16:39:21.848Z,0.88
2023-10-14T16:41:51.441Z,0.40
2023-10-14T16:44:19.112Z,2.33
2023-10-14T16:46:46.942Z,0.82
2023-10-14T16:49:14.972Z,1.15
2023-10-14T16:51:42.724Z,3.38
2023-10-14T16:54:10.355Z,4.68
2023-10-14T16:56:38.446Z,1.08
2023-10-14T16:59:07.708Z,1.45
2023-10-14T17:01:38.410Z,1.40
2023-10-14T17:04:06.720Z,2.42
2023-10-14T17:06:34.525Z,1.42
2023-10-14T17:09:02.377Z,0.40
2023-10-14T17:11:30.415Z,1.05
2023-10-14T17:13:59.585Z,1.15
2023-10-14T17:16:31.773Z,0.60
2023-10-14T17:18:59.560Z,0.98
2023-10-14T17:21:27.225Z,1.40
2023-10-14T17:23:57.223Z,0.73
2023-10-14T17:26:25.044Z,2.35
2023-10-14T17:28:52.797Z,1.38
2023-10-14T17:31:20.754Z,1.70
2023-10-14T17:33:51.656Z,1.25
2023-10-14T17:36:19.458Z,1.15
2023-10-14T17:38:47.339Z,1.15
2023-10-14T17:41:15.746Z,0.77
2023-10-14T17:43:43.585Z,1.80
2023-10-14T17:46:14.474Z,3.45
2023-10-14T17:51:13.499Z,0.95
2023-10-14T17:53:44.447Z,2.92
2023-10-14T17:56:13.601Z,1.63
2023-10-14T17:58:41.617Z,1.45
2023-10-14T18:01:14.918Z,2.80
2023-10-14T18:03:43.763Z,0.93
2023-10-14T18:06:14.601Z,0.60
2023-10-14T18:08:42.742Z,1.60
2023-10-14T18:11:12.474Z,0.43
2023-10-14T18:13:40.413Z,0.20
2023-10-14T18:16:09.776Z,0.80
2023-10-14T18:18:37.564Z,0.88
2023-10-14T18:21:08.085Z,0.43
2023-10-14T18:23:37.333Z,0.75
2023-10-14T18:26:05.783Z,0.60
2023-10-14T18:28:33.583Z,0.28
2023-10-14T18:31:01.576Z,0.30
2023-10-14T18:33:29.582Z,1.10
2023-10-14T18:35:57.279Z,1.02
2023-10-14T18:38:24.969Z,0.35
2023-10-14T18:40:54.280Z,0.82
2023-10-14T18:43:22.152Z,1.25
2023-10-14T18:45:50.096Z,0.80
2023-10-14T18:48:21.110Z,0.38
2023-10-14T18:50:48.753Z,0.30
2023-10-14T18:53:19.453Z,0.10
2023-10-14T18:55:50.790Z,0.30
2023-10-14T18:58:23.141Z,0.00
2023-10-14T19:00:50.827Z,0.52
2023-10-14T19:03:18.671Z,0.35
2023-10-14T19:05:46.704Z,0.55
2023-10-14T19:08:14.835Z,0.10
2023-10-14T19:10:43.287Z,0.88
2023-10-14T19:13:11.084Z,0.00
2023-10-14T19:15:40.505Z,0.98
2023-10-14T19:18:09.585Z,0.10
2023-10-14T19:20:38.863Z,0.70
2023-10-14T19:23:11.922Z,0.40
2023-10-14T19:25:42.881Z,1.60
2023-10-14T19:28:11.032Z,1.95
2023-10-14T19:30:41.478Z,0.47
2023-10-14T19:33:09.964Z,0.30
2023-10-14T19:35:39.100Z,0.32
2023-10-14T19:38:06.891Z,0.30
2023-10-14T19:40:35.187Z,0.60
2023-10-14T19:43:02.822Z,0.10
2023-10-14T19:45:30.916Z,0.57
2023-10-14T19:48:00.357Z,0.40
2023-10-14T19:50:28.441Z,0.25
2023-10-14T19:52:55.967Z,2.85
2023-10-14T19:55:23.867Z,3.97
2023-10-14T19:57:52.857Z,1.15
2023-10-14T20:00:21.694Z,0.55
2023-10-14T20:02:50.136Z,2.53
2023-10-14T20:05:20.209Z,2.55
2023-10-14T20:07:48.226Z,2.13
2023-10-14T20:10:16.336Z,2.92
2023-10-14T20:12:44.200Z,3.40
2023-10-14T20:15:11.901Z,0.10
2023-10-14T20:17:40.286Z,1.95
2023-10-14T20:20:09.149Z,1.75
2023-10-14T20:22:38.304Z,0.68
2023-10-14T20:25:06.611Z,0.35
2023-10-14T20:27:34.341Z,0.43
2023-10-14T20:30:01.962Z,0.43
2023-10-14T20:32:30.108Z,1.35
2023-10-14T20:34:57.756Z,1.48
2023-10-14T20:37:25.258Z,0.00
2023-10-14T20:39:54.561Z,0.15
2023-10-14T20:42:22.105Z,0.50
2023-10-14T20:44:49.672Z,0.45
2023-10-14T20:47:17.804Z,0.25
2023-10-14T20:49:45.506Z,0.28
2023-10-14T20:52:13.262Z,0.20
2023-10-14T20:54:40.998Z,0.30
2023-10-14T20:57:10.123Z,0.43
2023-10-14T20:59:37.771Z,0.03
2023-10-14T21:02:05.632Z,0.55
2023-10-14T21:04:33.605Z,0.80
2023-10-14T21:07:01.492Z,0.00
2023-10-14T21:09:29.399Z,0.20
2023-10-14T21:11:57.226Z,0.25
2023-10-14T21:14:26.369Z,0.35
2023-10-14T21:16:54.201Z,0.10
2023-10-14T21:19:22.051Z,0.28
2023-10-14T21:21:52.175Z,0.20
2023-10-14T21:24:20.043Z,0.73
2023-10-14T21:26:47.807Z,0.50
2023-10-14T21:29:15.406Z,0.95
2023-10-14T21:31:44.720Z,2.78
2023-10-14T21:34:12.636Z,1.65
2023-10-14T21:36:40.380Z,2.58
2023-10-14T21:39:08.251Z,1.35
2023-10-14T21:41:36.035Z,0.75
2023-10-14T21:44:03.904Z,0.22
2023-10-14T21:46:35.868Z,0.08
2023-10-14T21:49:06.404Z,0.75
2023-10-14T21:51:34.198Z,1.17
2023-10-14T21:54:01.936Z,0.10
2023-10-14T21:56:29.680Z,0.10
2023-10-14T21:58:57.564Z,0.45
2023-10-14T22:01:25.375Z,0.28
2023-10-14T22:03:55.591Z,1.13
2023-10-14T22:06:27.480Z,1.23
2023-10-14T22:08:55.174Z,0.55
2023-10-14T22:11:24.525Z,1.45
2023-10-14T22:13:57.870Z,1.38
2023-10-14T22:16:43.113Z,0.15
2023-10-14T22:19:13.140Z,0.10
2023-10-14T22:21:47.909Z,1.55
2023-10-14T22:24:18.376Z,0.65
2023-10-14T22:26:46.309Z,4.47
2023-10-14T22:29:16.288Z,0.38
2023-10-14T22:31:46.049Z,0.75
2023-10-14T22:34:13.907Z,0.10
2023-10-14T22:36:43.193Z,0.30
2023-10-14T22:39:14.662Z,0.20
2023-10-14T22:41:42.687Z,0.90
2023-10-14T22:44:10.447Z,0.25
2023-10-14T22:46:40.616Z,0.20
2023-10-14T22:49:12.166Z,0.45
2023-10-14T22:51:43.263Z,0.10
2023-10-14T22:54:10.986Z,1.08
2023-10-14T22:56:45.798Z,0.47
2023-10-14T22:59:13.808Z,0.57
2023-10-14T23:01:41.808Z,0.80
2023-10-14T23:04:12.395Z,0.70
2023-10-14T23:06:47.718Z,0.32
2023-10-14T23:09:18.179Z,1.23
2023-10-14T23:11:46.402Z,0.20
2023-10-14T23:14:14.348Z,0.68
2023-10-14T23:16:44.574Z,0.35
2023-10-14T23:19:14.913Z,2.70
2023-10-14T23:21:44.257Z,0.52
2023-10-14T23:24:17.890Z,1.33
2023-10-14T23:26:50.804Z,4.30
2023-10-14T23:29:24.220Z,1.55
2023-10-14T23:31:52.073Z,0.90
2023-10-14T23:34:39.512Z,0.47
2023-10-14T23:37:20.508Z,0.50
2023-10-14T23:40:00.656Z,2.13
2023-10-14T23:42:36.297Z,1.23
2023-10-14T23:45:04.693Z,1.00
2023-10-14T23:47:39.174Z,0.20
2023-10-14T23:50:10.389Z,0.55
2023-10-14T23:52:50.223Z,0.35
2023-10-14T23:58:30.742Z,0.68
